createdAt,value
2023-04-20T00:00:56.291Z,7.95
2023-04-20T00:20:56.279Z,7.72
2023-04-20T00:30:56.396Z,7.59
2023-04-20T00:40:56.250Z,7.56
2023-04-20T00:50:56.246Z,7.47
2023-04-20T01:00:56.287Z,7.31
2023-04-20T01:10:56.242Z,7.22
2023-04-20T01:20:56.232Z,7.13
2023-04-20T01:30:56.201Z,7.05
2023-04-20T01:40:56.215Z,7.04
2023-04-20T01:50:56.229Z,6.99
2023-04-20T02:00:56.250Z,6.97
2023-04-20T02:10:56.229Z,6.92
2023-04-20T02:20:56.197Z,6.89
2023-04-20T02:30:56.193Z,6.88
2023-04-20T02:40:56.170Z,6.87
2023-04-20T02:50:56.197Z,6.77
2023-04-20T03:00:56.218Z,6.76
2023-04-20T03:10:56.195Z,6.73
2023-04-20T03:20:56.182Z,6.75
2023-04-20T03:30:56.192Z,6.7
2023-04-20T03:40:56.163Z,6.68
2023-04-20T03:50:56.153Z,6.59
2023-04-20T04:00:56.180Z,6.56
2023-04-20T04:20:56.198Z,6.5
2023-04-20T04:30:56.198Z,6.48
2023-04-20T04:40:56.205Z,6.43
2023-04-20T04:50:56.182Z,6.43
2023-04-20T05:00:56.149Z,6.52
2023-04-20T05:10:56.170Z,6.63
2023-04-20T05:20:56.167Z,6.72
2023-04-20T05:30:56.186Z,6.86
2023-04-20T05:40:56.164Z,7.01
2023-04-20T05:50:56.126Z,7.21
2023-04-20T06:00:56.171Z,7.33
2023-04-20T06:10:56.135Z,7.33
2023-04-20T06:20:56.165Z,7.35
2023-04-20T06:30:56.232Z,7.46
2023-04-20T06:40:56.140Z,7.74
2023-04-20T06:50:56.131Z,7.96
2023-04-20T07:00:56.148Z,8.06
2023-04-20T07:10:56.144Z,8.77
2023-04-20T07:20:56.119Z,9.48
2023-04-20T07:30:56.100Z,9.22
2023-04-20T07:40:56.150Z,8.86
2023-04-20T07:50:56.114Z,8.67
2023-04-20T08:00:56.108Z,8.65
2023-04-20T08:10:56.100Z,8.74
2023-04-20T08:20:56.072Z,8.69
2023-04-20T08:30:56.092Z,8.6
2023-04-20T08:40:56.061Z,8.44
2023-04-20T08:50:56.140Z,8.39
2023-04-20T09:00:56.089Z,8.64
2023-04-20T09:10:56.064Z,8.72
2023-04-20T09:20:56.048Z,8.77
2023-04-20T09:30:56.050Z,8.72
2023-04-20T09:40:56.041Z,8.77
2023-04-20T09:50:56.114Z,8.87
2023-04-20T10:01:03.261Z,8.91
2023-04-20T10:10:55.996Z,8.97
2023-04-20T10:20:56.040Z,9.1
2023-04-20T10:30:56.135Z,9.2
2023-04-20T10:40:56.041Z,9.22
2023-04-20T10:50:56.017Z,9.12
2023-04-20T11:00:56.016Z,9.28
2023-04-20T11:10:56.012Z,9.22
2023-04-20T11:20:56.032Z,9.12
2023-04-20T11:30:56.011Z,9.33
2023-04-20T11:40:56.006Z,9.51
2023-04-20T11:50:55.998Z,9.34
2023-04-20T12:00:56.008Z,9.45
2023-04-20T12:10:58.053Z,10.16
2023-04-20T12:20:55.978Z,9.98
2023-04-20T12:30:56.030Z,9.96
2023-04-20T12:40:55.997Z,9.94
2023-04-20T12:50:55.994Z,10.1
2023-04-20T13:00:55.993Z,10.02
2023-04-20T13:10:55.990Z,10.08
2023-04-20T13:20:56.021Z,10.16
2023-04-20T13:30:55.957Z,10.31
2023-04-20T13:40:55.944Z,10.35
2023-04-20T13:50:55.927Z,10.22
2023-04-20T14:00:55.974Z,10.22
2023-04-20T14:10:55.962Z,10.09
2023-04-20T14:20:55.985Z,10.04
2023-04-20T14:30:55.965Z,10.2
2023-04-20T14:40:55.959Z,10.13
2023-04-20T14:50:55.895Z,10.19
2023-04-20T15:00:55.895Z,10.61
2023-04-20T15:10:55.895Z,11.05
2023-04-20T15:20:55.921Z,11
2023-04-20T15:30:55.859Z,10.74
2023-04-20T15:40:55.912Z,10.66
2023-04-20T15:50:55.901Z,10.78
2023-04-20T16:00:55.855Z,10.57
2023-04-20T16:10:55.904Z,10.67
2023-04-20T16:20:55.932Z,10.88
2023-04-20T16:30:55.869Z,10.75
2023-04-20T16:40:55.886Z,10.68
2023-04-20T16:50:55.857Z,10.64
2023-04-20T17:00:55.865Z,10.4
2023-04-20T17:10:55.934Z,10.2
2023-04-20T17:20:55.866Z,9.95
2023-04-20T17:30:55.831Z,9.69
2023-04-20T17:40:55.856Z,9.44
2023-04-20T17:50:57.482Z,9.32
2023-04-20T18:00:55.818Z,9.34
2023-04-20T18:10:55.808Z,9.28
2023-04-20T18:20:55.795Z,9.22
2023-04-20T18:30:57.717Z,9.08
2023-04-20T18:40:55.784Z,8.94
2023-04-20T18:50:55.771Z,8.81
2023-04-20T19:00:55.799Z,8.71
2023-04-20T19:10:55.778Z,8.59
2023-04-20T19:20:55.798Z,8.59
2023-04-20T19:30:55.808Z,8.59
2023-04-20T19:40:55.752Z,8.49
2023-04-20T19:50:55.746Z,8.37
2023-04-20T20:00:55.795Z,8.26
2023-04-20T20:10:55.755Z,8.15
2023-04-20T20:20:55.738Z,8.02
2023-04-20T20:30:55.775Z,7.89
2023-04-20T20:40:55.788Z,7.88
2023-04-20T20:50:55.723Z,7.92
2023-04-20T21:00:55.796Z,7.94
2023-04-20T21:10:55.744Z,7.94
2023-04-20T21:20:55.740Z,7.94
2023-04-20T21:30:55.744Z,7.91
2023-04-20T21:40:55.729Z,7.97
2023-04-20T21:50:55.723Z,7.92
2023-04-20T22:00:55.750Z,7.92
2023-04-20T22:10:55.731Z,7.92
2023-04-20T22:20:55.706Z,7.91
2023-04-20T22:30:55.720Z,7.88
2023-04-20T22:40:55.735Z,7.9
2023-04-20T22:50:55.681Z,7.92
2023-04-20T23:00:55.679Z,7.94
2023-04-20T23:10:55.697Z,7.93
2023-04-20T23:20:55.684Z,7.89
2023-04-20T23:30:55.686Z,7.83
2023-04-20T23:40:55.670Z,7.76
2023-04-20T23:50:55.655Z,7.75
